sensor_id;sensor_type;location;lat;lon;timestamp;pressure;altitude;pressure_sealevel;temperature;humidity
51876;BME280;34054;52.100;5.116;2023-01-28T00:00:09;102811.06;;;4.42;84.34
51876;BME280;34054;52.100;5.116;2023-01-28T00:00:41;102811.06;;;4.42;84.23
51876;BME280;34054;52.100;5.116;2023-01-28T00:01:14;102808.50;;;4.24;83.93
51876;BME280;34054;52.100;5.116;2023-01-28T00:01:46;102810.88;;;4.35;84.28
51876;BME280;34054;52.100;5.116;2023-01-28T00:02:18;102812.75;;;4.35;84.30
51876;BME280;34054;52.100;5.116;2023-01-28T00:02:51;102807.53;;;4.42;84.42
51876;BME280;34054;52.100;5.116;2023-01-28T00:03:23;102807.03;;;4.38;84.31
51876;BME280;34054;52.100;5.116;2023-01-28T00:03:54;102815.09;;;4.46;84.37
51876;BME280;34054;52.100;5.116;2023-01-28T00:04:25;102808.03;;;4.37;83.03
51876;BME280;34054;52.100;5.116;2023-01-28T00:04:58;102813.25;;;4.30;83.00
51876;BME280;34054;52.100;5.116;2023-01-28T00:05:30;102809.38;;;4.33;83.04
51876;BME280;34054;52.100;5.116;2023-01-28T00:06:01;102812.75;;;4.35;82.98
51876;BME280;34054;52.100;5.116;2023-01-28T00:06:34;102809.03;;;4.36;82.21
51876;BME280;34054;52.100;5.116;2023-01-28T00:07:06;102817.78;;;4.38;81.99
51876;BME280;34054;52.100;5.116;2023-01-28T00:07:37;102812.41;;;4.38;82.01
51876;BME280;34054;52.100;5.116;2023-01-28T00:08:10;102810.38;;;4.40;81.97
51876;BME280;34054;52.100;5.116;2023-01-28T00:08:43;102814.41;;;4.44;82.07
51876;BME280;34054;52.100;5.116;2023-01-28T00:09:15;102818.47;;;4.48;82.11
51876;BME280;34054;52.100;5.116;2023-01-28T00:09:48;102816.28;;;4.52;82.39
51876;BME280;34054;52.100;5.116;2023-01-28T00:10:19;102823.84;;;4.56;82.42
51876;BME280;34054;52.100;5.116;2023-01-28T00:10:50;102821.50;;;4.53;82.74
51876;BME280;34054;52.100;5.116;2023-01-28T00:11:23;102826.53;;;4.40;82.99
51876;BME280;34054;52.100;5.116;2023-01-28T00:11:54;102821.16;;;4.32;83.23
51876;BME280;34054;52.100;5.116;2023-01-28T00:12:25;102815.59;;;4.25;83.62
51876;BME280;34054;52.100;5.116;2023-01-28T00:12:59;102819.44;;;4.14;82.68
51876;BME280;34054;52.100;5.116;2023-01-28T00:13:30;102821.44;;;4.12;82.74
51876;BME280;34054;52.100;5.116;2023-01-28T00:14:03;102819.78;;;4.19;83.35
51876;BME280;34054;52.100;5.116;2023-01-28T00:14:35;102812.72;;;4.27;83.77
51876;BME280;34054;52.100;5.116;2023-01-28T00:15:07;102819.97;;;4.34;83.92
51876;BME280;34054;52.100;5.116;2023-01-28T00:15:39;102817.28;;;4.43;83.87
51876;BME280;34054;52.100;5.116;2023-01-28T00:16:12;102819.13;;;4.34;83.63
51876;BME280;34054;52.100;5.116;2023-01-28T00:16:43;102821.78;;;4.09;82.39
51876;BME280;34054;52.100;5.116;2023-01-28T00:17:15;102815.34;;;3.93;82.74
51876;BME280;34054;52.100;5.116;2023-01-28T00:17:47;102817.28;;;3.67;83.36
51876;BME280;34054;52.100;5.116;2023-01-28T00:18:20;102817.84;;;3.79;84.24
51876;BME280;34054;52.100;5.116;2023-01-28T00:18:52;102824.94;;;3.88;84.69
51876;BME280;34054;52.100;5.116;2023-01-28T00:19:24;102826.28;;;4.00;84.84
51876;BME280;34054;52.100;5.116;2023-01-28T00:19:55;102817.03;;;3.95;83.77
51876;BME280;34054;52.100;5.116;2023-01-28T00:20:28;102820.69;;;3.85;84.10
51876;BME280;34054;52.100;5.116;2023-01-28T00:21:00;102814.16;;;3.88;84.22
51876;BME280;34054;52.100;5.116;2023-01-28T00:21:33;102813.81;;;3.91;84.50
51876;BME280;34054;52.100;5.116;2023-01-28T00:22:05;102815.53;;;4.00;84.71
51876;BME280;34054;52.100;5.116;2023-01-28T00:22:37;102820.41;;;4.05;84.91
51876;BME280;34054;52.100;5.116;2023-01-28T00:23:08;102808.69;;;4.14;84.71
51876;BME280;34054;52.100;5.116;2023-01-28T00:23:40;102818.09;;;4.27;84.74
51876;BME280;34054;52.100;5.116;2023-01-28T00:24:14;102812.56;;;4.36;84.30
51876;BME280;34054;52.100;5.116;2023-01-28T00:24:46;102811.22;;;4.40;83.70
51876;BME280;34054;52.100;5.116;2023-01-28T00:25:18;102817.97;;;4.36;82.81
51876;BME280;34054;52.100;5.116;2023-01-28T00:25:49;102815.44;;;4.35;82.23
51876;BME280;34054;52.100;5.116;2023-01-28T00:26:21;102812.75;;;4.35;82.21
51876;BME280;34054;52.100;5.116;2023-01-28T00:26:55;102814.41;;;4.28;82.05
51876;BME280;34054;52.100;5.116;2023-01-28T00:27:26;102810.72;;;4.29;82.11
51876;BME280;34054;52.100;5.116;2023-01-28T00:27:57;102809.69;;;4.30;82.18
51876;BME280;34054;52.100;5.116;2023-01-28T00:28:30;102805.31;;;4.29;82.45
51876;BME280;34054;52.100;5.116;2023-01-28T00:29:02;102806.69;;;4.24;81.89
51876;BME280;34054;52.100;5.116;2023-01-28T00:29:33;102801.44;;;4.23;81.50
51876;BME280;34054;52.100;5.116;2023-01-28T00:30:06;102804.31;;;4.13;81.95
51876;BME280;34054;52.100;5.116;2023-01-28T00:30:38;102804.00;;;4.24;82.07
51876;BME280;34054;52.100;5.116;2023-01-28T00:31:11;102807.53;;;4.33;81.88
51876;BME280;34054;52.100;5.116;2023-01-28T00:31:46;102804.00;;;4.33;82.07
51876;BME280;34054;52.100;5.116;2023-01-28T00:32:19;102808.34;;;4.17;82.22
51876;BME280;34054;52.100;5.116;2023-01-28T00:32:50;102807.50;;;4.17;82.68
51876;BME280;34054;52.100;5.116;2023-01-28T00:33:25;102806.47;;;4.01;82.10
51876;BME280;34054;52.100;5.116;2023-01-28T00:33:59;102810.66;;;4.04;82.25
51876;BME280;34054;52.100;5.116;2023-01-28T00:34:30;102810.47;;;3.97;82.90
51876;BME280;34054;52.100;5.116;2023-01-28T00:35:02;102805.97;;;4.06;82.89
51876;BME280;34054;52.100;5.116;2023-01-28T00:35:34;102801.94;;;4.10;83.06
51876;BME280;34054;52.100;5.116;2023-01-28T00:36:06;102808.00;;;4.12;83.39
51876;BME280;34054;52.100;5.116;2023-01-28T00:36:38;102811.38;;;4.14;83.51
51876;BME280;34054;52.100;5.116;2023-01-28T00:37:12;102808.00;;;4.20;83.47
51876;BME280;34054;52.100;5.116;2023-01-28T00:37:44;102808.00;;;4.20;83.71
51876;BME280;34054;52.100;5.116;2023-01-28T00:38:15;102810.38;;;4.23;83.67
51876;BME280;34054;52.100;5.116;2023-01-28T00:38:48;102817.09;;;4.36;83.66
51876;BME280;34054;52.100;5.116;2023-01-28T00:39:20;102808.88;;;4.37;83.54
51876;BME280;34054;52.100;5.116;2023-01-28T00:39:52;102813.41;;;4.45;83.02
51876;BME280;34054;52.100;5.116;2023-01-28T00:40:24;102808.53;;;4.32;82.39
51876;BME280;34054;52.100;5.116;2023-01-28T00:40:55;102813.09;;;4.40;82.57
51876;BME280;34054;52.100;5.116;2023-01-28T00:41:37;102811.41;;;4.39;82.47
51876;BME280;34054;52.100;5.116;2023-01-28T00:42:09;102804.66;;;4.27;82.58
51876;BME280;34054;52.100;5.116;2023-01-28T00:42:40;102801.81;;;4.20;82.71
51876;BME280;34054;52.100;5.116;2023-01-28T00:43:12;102803.31;;;4.22;82.62
51876;BME280;34054;52.100;5.116;2023-01-28T00:43:45;102801.28;;;4.16;83.12
51876;BME280;34054;52.100;5.116;2023-01-28T00:44:16;102808.00;;;4.20;83.33
51876;BME280;34054;52.100;5.116;2023-01-28T00:44:48;102809.38;;;4.24;83.47
51876;BME280;34054;52.100;5.116;2023-01-28T00:45:20;102800.28;;;4.09;82.92
51876;BME280;34054;52.100;5.116;2023-01-28T00:45:52;102799.09;;;4.20;82.81
51876;BME280;34054;52.100;5.116;2023-01-28T00:46:23;102799.63;;;4.23;82.29
51876;BME280;34054;52.100;5.116;2023-01-28T00:46:56;102807.88;;;4.30;82.27
51876;BME280;34054;52.100;5.116;2023-01-28T00:47:27;102809.03;;;4.28;82.42
51876;BME280;34054;52.100;5.116;2023-01-28T00:47:59;102805.00;;;4.32;82.96
51876;BME280;34054;52.100;5.116;2023-01-28T00:48:32;102812.06;;;4.41;83.15
51876;BME280;34054;52.100;5.116;2023-01-28T00:49:04;102816.28;;;4.44;83.25
51876;BME280;34054;52.100;5.116;2023-01-28T00:49:35;102812.06;;;4.41;83.24
51876;BME280;34054;52.100;5.116;2023-01-28T00:50:08;102815.78;;;4.40;83.21
51876;BME280;34054;52.100;5.116;2023-01-28T00:50:40;102816.09;;;4.45;83.40
51876;BME280;34054;52.100;5.116;2023-01-28T00:51:12;102813.78;;;4.59;83.37
51876;BME280;34054;52.100;5.116;2023-01-28T00:51:46;102808.03;;;4.62;82.42
51876;BME280;34054;52.100;5.116;2023-01-28T00:52:18;102816.78;;;4.64;82.17
51876;BME280;34054;52.100;5.116;2023-01-28T00:52:50;102819.97;;;4.59;82.20
51876;BME280;34054;52.100;5.116;2023-01-28T00:53:22;102812.75;;;4.60;82.54
51876;BME280;34054;52.100;5.116;2023-01-28T00:53:53;102812.25;;;4.56;82.46
51876;BME280;34054;52.100;5.116;2023-01-28T00:54:25;102811.72;;;4.52;82.21
51876;BME280;34054;52.100;5.116;2023-01-28T00:54:57;102809.56;;;4.56;82.33
51876;BME280;34054;52.100;5.116;2023-01-28T00:55:29;102816.09;;;4.62;82.16
51876;BME280;34054;52.100;5.116;2023-01-28T00:56:00;102816.47;;;4.67;82.05
51876;BME280;34054;52.100;5.116;2023-01-28T00:56:32;102817.13;;;4.69;82.04
51876;BME280;34054;52.100;5.116;2023-01-28T00:57:04;102815.09;;;4.71;81.65
51876;BME280;34054;52.100;5.116;2023-01-28T00:57:37;102814.78;;;4.74;80.86
51876;BME280;34054;52.100;5.116;2023-01-28T00:58:09;102810.22;;;4.66;80.75
51876;BME280;34054;52.100;5.116;2023-01-28T00:58:40;102809.03;;;4.61;81.03
51876;BME280;34054;52.100;5.116;2023-01-28T00:59:13;102812.09;;;4.66;80.98
51876;BME280;34054;52.100;5.116;2023-01-28T00:59:46;102807.69;;;4.65;80.97
51876;BME280;34054;52.100;5.116;2023-01-28T01:00:17;102804.84;;;4.58;81.22
51876;BME280;34054;52.100;5.116;2023-01-28T01:00:51;102812.75;;;4.60;81.52
51876;BME280;34054;52.100;5.116;2023-01-28T01:01:23;102801.63;;;4.63;81.40
51876;BME280;34054;52.100;5.116;2023-01-28T01:01:56;102805.00;;;4.73;81.19
51876;BME280;34054;52.100;5.116;2023-01-28T01:02:41;102799.63;;;4.56;80.83
51876;BME280;34054;52.100;5.116;2023-01-28T01:03:13;102798.28;;;4.52;81.30
51876;BME280;34054;52.100;5.116;2023-01-28T01:03:46;102801.81;;;4.45;81.76
51876;BME280;34054;52.100;5.116;2023-01-28T01:04:24;102804.19;;;4.56;82.25
51876;BME280;34054;52.100;5.116;2023-01-28T01:04:56;102809.91;;;4.61;82.19
51876;BME280;34054;52.100;5.116;2023-01-28T01:05:30;102810.06;;;4.68;82.20
51876;BME280;34054;52.100;5.116;2023-01-28T01:06:04;102807.19;;;4.69;81.78
51876;BME280;34054;52.100;5.116;2023-01-28T01:06:36;102810.72;;;4.70;81.71
51876;BME280;34054;52.100;5.116;2023-01-28T01:07:09;102811.72;;;4.61;81.91
51876;BME280;34054;52.100;5.116;2023-01-28T01:07:41;102806.53;;;4.59;82.09
51876;BME280;34054;52.100;5.116;2023-01-28T01:08:12;102811.59;;;4.62;82.35
51876;BME280;34054;52.100;5.116;2023-01-28T01:08:44;102808.72;;;4.55;82.13
51876;BME280;34054;52.100;5.116;2023-01-28T01:09:20;102808.38;;;4.59;82.18
51876;BME280;34054;52.100;5.116;2023-01-28T01:09:52;102809.38;;;4.58;82.44
51876;BME280;34054;52.100;5.116;2023-01-28T01:10:23;102809.03;;;4.61;82.60
51876;BME280;34054;52.100;5.116;2023-01-28T01:10:57;102806.69;;;4.58;82.78
51876;BME280;34054;52.100;5.116;2023-01-28T01:11:28;102805.34;;;4.62;82.86
51876;BME280;34054;52.100;5.116;2023-01-28T01:12:00;102808.53;;;4.65;82.66
51876;BME280;34054;52.100;5.116;2023-01-28T01:12:32;102810.56;;;4.63;82.69
51876;BME280;34054;52.100;5.116;2023-01-28T01:13:04;102807.03;;;4.63;82.51
51876;BME280;34054;52.100;5.116;2023-01-28T01:13:35;102800.81;;;4.62;82.50
51876;BME280;34054;52.100;5.116;2023-01-28T01:14:08;102805.19;;;4.63;82.49
51876;BME280;34054;52.100;5.116;2023-01-28T01:14:41;102808.72;;;4.72;82.41
51876;BME280;34054;52.100;5.116;2023-01-28T01:15:13;102811.41;;;4.72;82.58
51876;BME280;34054;52.100;5.116;2023-01-28T01:15:45;102806.69;;;4.74;82.57
51876;BME280;34054;52.100;5.116;2023-01-28T01:16:17;102812.06;;;4.82;82.56
51876;BME280;34054;52.100;5.116;2023-01-28T01:16:49;102805.69;;;4.83;82.16
51876;BME280;34054;52.100;5.116;2023-01-28T01:17:20;102803.81;;;4.84;82.11
51876;BME280;34054;52.100;5.116;2023-01-28T01:17:52;102805.00;;;4.81;81.97
51876;BME280;34054;52.100;5.116;2023-01-28T01:18:24;102809.56;;;4.81;81.88
51876;BME280;34054;52.100;5.116;2023-01-28T01:18:57;102798.09;;;4.79;81.98
51876;BME280;34054;52.100;5.116;2023-01-28T01:19:29;102801.97;;;4.84;81.95
51876;BME280;34054;52.100;5.116;2023-01-28T01:20:02;102800.13;;;4.85;81.73
51876;BME280;34054;52.100;5.116;2023-01-28T01:20:34;102804.16;;;4.89;81.68
51876;BME280;34054;52.100;5.116;2023-01-28T01:21:10;102810.69;;;4.95;81.59
51876;BME280;34054;52.100;5.116;2023-01-28T01:21:43;102808.34;;;5.00;81.47
51876;BME280;34054;52.100;5.116;2023-01-28T01:22:20;102806.66;;;4.99;81.04
51876;BME280;34054;52.100;5.116;2023-01-28T01:22:51;102805.16;;;4.96;80.79
51876;BME280;34054;52.100;5.116;2023-01-28T01:23:22;102802.13;;;4.83;80.73
51876;BME280;34054;52.100;5.116;2023-01-28T01:23:54;102807.19;;;4.86;80.96
51876;BME280;34054;52.100;5.116;2023-01-28T01:24:27;102805.16;;;4.88;81.22
51876;BME280;34054;52.100;5.116;2023-01-28T01:24:59;102803.66;;;4.85;81.24
51876;BME280;34054;52.100;5.116;2023-01-28T01:25:31;102809.06;;;4.85;81.34
51876;BME280;34054;52.100;5.116;2023-01-28T01:26:03;102809.38;;;4.91;81.46
51876;BME280;34054;52.100;5.116;2023-01-28T01:26:35;102808.19;;;4.93;81.41
51876;BME280;34054;52.100;5.116;2023-01-28T01:27:06;102807.66;;;5.06;81.13
51876;BME280;34054;52.100;5.116;2023-01-28T01:27:39;102811.56;;;4.95;80.34
51876;BME280;34054;52.100;5.116;2023-01-28T01:28:10;102810.53;;;5.05;80.38
51876;BME280;34054;52.100;5.116;2023-01-28T01:28:41;102814.03;;;5.05;80.31
51876;BME280;34054;52.100;5.116;2023-01-28T01:29:14;102806.47;;;5.09;80.11
51876;BME280;34054;52.100;5.116;2023-01-28T01:29:45;102813.72;;;5.00;79.86
51876;BME280;34054;52.100;5.116;2023-01-28T01:30:17;102804.66;;;5.01;79.92
51876;BME280;34054;52.100;5.116;2023-01-28T01:30:57;102815.75;;;4.98;79.94
51876;BME280;34054;52.100;5.116;2023-01-28T01:31:30;102812.03;;;5.07;80.17
51876;BME280;34054;52.100;5.116;2023-01-28T01:32:01;102811.34;;;5.05;79.89
51876;BME280;34054;52.100;5.116;2023-01-28T01:32:33;102810.03;;;4.93;79.87
51876;BME280;34054;52.100;5.116;2023-01-28T01:33:05;102805.47;;;5.01;79.34
51876;BME280;34054;52.100;5.116;2023-01-28T01:33:37;102805.97;;;5.05;79.17
51876;BME280;34054;52.100;5.116;2023-01-28T01:34:11;102811.03;;;5.00;79.25
51876;BME280;34054;52.100;5.116;2023-01-28T01:34:42;102811.88;;;5.00;78.91
51876;BME280;34054;52.100;5.116;2023-01-28T01:35:13;102809.34;;;4.99;78.69
51876;BME280;34054;52.100;5.116;2023-01-28T01:35:51;102809.53;;;4.97;78.70
51876;BME280;34054;52.100;5.116;2023-01-28T01:36:23;102806.47;;;5.00;78.31
51876;BME280;34054;52.100;5.116;2023-01-28T01:36:55;102806.50;;;4.92;77.99
51876;BME280;34054;52.100;5.116;2023-01-28T01:37:27;102803.50;;;4.79;78.01
51876;BME280;34054;52.100;5.116;2023-01-28T01:37:59;102801.81;;;4.78;78.40
51876;BME280;34054;52.100;5.116;2023-01-28T01:38:30;102809.06;;;4.85;78.67
51876;BME280;34054;52.100;5.116;2023-01-28T01:39:02;102805.47;;;4.93;78.08
51876;BME280;34054;52.100;5.116;2023-01-28T01:39:34;102806.31;;;5.02;77.64
51876;BME280;34054;52.100;5.116;2023-01-28T01:40:06;102811.34;;;5.05;77.19
51876;BME280;34054;52.100;5.116;2023-01-28T01:40:40;102805.84;;;4.98;77.33
51876;BME280;34054;52.100;5.116;2023-01-28T01:41:16;102812.25;;;4.89;77.83
51876;BME280;34054;52.100;5.116;2023-01-28T01:41:54;102792.41;;;4.82;77.94
51876;BME280;34054;52.100;5.116;2023-01-28T01:42:26;102817.13;;;4.85;78.40
51876;BME280;34054;52.100;5.116;2023-01-28T01:42:58;102815.75;;;4.90;78.33
51876;BME280;34054;52.100;5.116;2023-01-28T01:43:45;102817.75;;;4.96;78.46
51876;BME280;34054;52.100;5.116;2023-01-28T01:45:27;102807.66;;;5.06;78.36
51876;BME280;34054;52.100;5.116;2023-01-28T01:46:04;102809.84;;;5.11;78.06
51876;BME280;34054;52.100;5.116;2023-01-28T01:46:36;102809.03;;;4.94;77.89
51876;BME280;34054;52.100;5.116;2023-01-28T01:47:13;102815.44;;;4.84;78.10
51876;BME280;34054;52.100;5.116;2023-01-28T01:47:49;102812.75;;;4.84;78.23
51876;BME280;34054;52.100;5.116;2023-01-28T01:48:27;102817.44;;;4.91;78.36
51876;BME280;34054;52.100;5.116;2023-01-28T01:49:12;102812.75;;;4.93;78.52
51876;BME280;34054;52.100;5.116;2023-01-28T01:49:49;102821.47;;;4.78;79.08
51876;BME280;34054;52.100;5.116;2023-01-28T01:50:23;102818.16;;;4.68;79.12
51876;BME280;34054;52.100;5.116;2023-01-28T01:51:01;102822.66;;;4.76;79.29
51876;BME280;34054;52.100;5.116;2023-01-28T01:51:38;102823.66;;;4.75;79.48
51876;BME280;34054;52.100;5.116;2023-01-28T01:52:10;102825.34;;;4.76;79.59
51876;BME280;34054;52.100;5.116;2023-01-28T01:52:47;102832.94;;;4.80;79.90
51876;BME280;34054;52.100;5.116;2023-01-28T01:53:23;102823.53;;;4.76;80.30
51876;BME280;34054;52.100;5.116;2023-01-28T01:53:57;102824.34;;;4.77;80.56
51876;BME280;34054;52.100;5.116;2023-01-28T01:54:30;102827.22;;;4.83;80.71
51876;BME280;34054;52.100;5.116;2023-01-28T01:55:05;102828.03;;;4.84;80.60
51876;BME280;34054;52.100;5.116;2023-01-28T01:55:44;102825.19;;;4.85;80.71
51876;BME280;34054;52.100;5.116;2023-01-28T01:56:20;102820.97;;;4.83;80.65
51876;BME280;34054;52.100;5.116;2023-01-28T01:56:54;102824.50;;;5.00;80.72
51876;BME280;34054;52.100;5.116;2023-01-28T01:57:28;102824.00;;;4.96;80.44
51876;BME280;34054;52.100;5.116;2023-01-28T01:58:03;102830.56;;;5.02;80.22
51876;BME280;34054;52.100;5.116;2023-01-28T01:58:38;102826.53;;;4.98;80.12
51876;BME280;34054;52.100;5.116;2023-01-28T01:59:16;102824.03;;;4.88;80.22
51876;BME280;34054;52.100;5.116;2023-01-28T01:59:52;102825.03;;;4.79;80.20
51876;BME280;34054;52.100;5.116;2023-01-28T02:00:25;102829.56;;;4.86;80.16
51876;BME280;34054;52.100;5.116;2023-01-28T02:00:57;102824.16;;;4.86;80.53
51876;BME280;34054;52.100;5.116;2023-01-28T02:01:29;102820.13;;;4.91;80.47
51876;BME280;34054;52.100;5.116;2023-01-28T02:02:02;102818.63;;;4.96;80.52
51876;BME280;34054;52.100;5.116;2023-01-28T02:02:38;102815.59;;;4.91;80.38
51876;BME280;34054;52.100;5.116;2023-01-28T02:03:12;102826.53;;;4.98;80.34
51876;BME280;34054;52.100;5.116;2023-01-28T02:03:51;102827.50;;;5.05;80.23
51876;BME280;34054;52.100;5.116;2023-01-28T02:04:28;102821.31;;;5.05;80.07
51876;BME280;34054;52.100;5.116;2023-01-28T02:05:02;102818.44;;;5.06;79.90
51876;BME280;34054;52.100;5.116;2023-01-28T02:05:34;102816.91;;;5.03;80.00
51876;BME280;34054;52.100;5.116;2023-01-28T02:06:06;102813.22;;;5.05;80.01
51876;BME280;34054;52.100;5.116;2023-01-28T02:06:40;102818.78;;;5.03;79.72
51876;BME280;34054;52.100;5.116;2023-01-28T02:07:12;102813.72;;;5.08;79.49
51876;BME280;34054;52.100;5.116;2023-01-28T02:07:47;102814.91;;;5.06;79.62
51876;BME280;34054;52.100;5.116;2023-01-28T02:08:24;102800.09;;;4.93;79.73
51876;BME280;34054;52.100;5.116;2023-01-28T02:08:56;102816.44;;;5.00;79.87
51876;BME280;34054;52.100;5.116;2023-01-28T02:09:29;102816.44;;;5.00;79.92
51876;BME280;34054;52.100;5.116;2023-01-28T02:10:01;102817.09;;;5.02;80.03
51876;BME280;34054;52.100;5.116;2023-01-28T02:10:34;102821.13;;;4.98;79.96
51876;BME280;34054;52.100;5.116;2023-01-28T02:11:06;102818.94;;;4.93;80.16
51876;BME280;34054;52.100;5.116;2023-01-28T02:11:38;102817.44;;;4.91;80.25
51876;BME280;34054;52.100;5.116;2023-01-28T02:12:11;102818.28;;;4.91;80.40
51876;BME280;34054;52.100;5.116;2023-01-28T02:12:46;102815.94;;;4.88;80.49
51876;BME280;34054;52.100;5.116;2023-01-28T02:13:24;102816.28;;;4.85;80.56
51876;BME280;34054;52.100;5.116;2023-01-28T02:14:01;102815.09;;;4.87;80.45
51876;BME280;34054;52.100;5.116;2023-01-28T02:14:35;102820.47;;;4.87;80.50
51876;BME280;34054;52.100;5.116;2023-01-28T02:15:09;102819.81;;;4.85;80.70
51876;BME280;34054;52.100;5.116;2023-01-28T02:15:44;102818.44;;;4.90;80.83
51876;BME280;34054;52.100;5.116;2023-01-28T02:16:16;102815.09;;;4.87;80.78
51876;BME280;34054;52.100;5.116;2023-01-28T02:16:48;102816.44;;;4.92;80.57
51876;BME280;34054;52.100;5.116;2023-01-28T02:17:21;102818.44;;;4.90;80.42
51876;BME280;34054;52.100;5.116;2023-01-28T02:17:53;102818.63;;;4.96;80.28
51876;BME280;34054;52.100;5.116;2023-01-28T02:18:24;102819.44;;;4.97;80.43
51876;BME280;34054;52.100;5.116;2023-01-28T02:18:57;102819.44;;;5.05;80.33
51876;BME280;34054;52.100;5.116;2023-01-28T02:19:31;102818.09;;;5.09;79.81
51876;BME280;34054;52.100;5.116;2023-01-28T02:20:08;102816.59;;;4.98;79.54
51876;BME280;34054;52.100;5.116;2023-01-28T02:20:56;102821.16;;;4.90;79.30
51876;BME280;34054;52.100;5.116;2023-01-28T02:22:02;102822.84;;;4.82;80.20
51876;BME280;34054;52.100;5.116;2023-01-28T02:22:51;102820.81;;;4.84;80.55
51876;BME280;34054;52.100;5.116;2023-01-28T02:23:44;102821.81;;;4.92;80.56
51876;BME280;34054;52.100;5.116;2023-01-28T02:24:44;102827.22;;;4.92;80.72
51876;BME280;34054;52.100;5.116;2023-01-28T02:26:39;102819.47;;;4.80;80.96
51876;BME280;34054;52.100;5.116;2023-01-28T02:27:30;102816.09;;;4.78;81.26
51876;BME280;34054;52.100;5.116;2023-01-28T02:28:12;102829.41;;;4.80;81.09
51876;BME280;34054;52.100;5.116;2023-01-28T02:28:54;102824.03;;;4.80;81.14
51876;BME280;34054;52.100;5.116;2023-01-28T02:29:33;102828.22;;;4.82;81.13
51876;BME280;34054;52.100;5.116;2023-01-28T02:30:14;102829.72;;;4.93;80.70
51876;BME280;34054;52.100;5.116;2023-01-28T02:30:55;102827.53;;;4.97;80.49
51876;BME280;34054;52.100;5.116;2023-01-28T02:31:36;102830.59;;;4.94;80.58
51876;BME280;34054;52.100;5.116;2023-01-28T02:32:14;102829.91;;;4.83;80.95
51876;BME280;34054;52.100;5.116;2023-01-28T02:32:52;102832.94;;;4.80;81.13
51876;BME280;34054;52.100;5.116;2023-01-28T02:33:28;102837.31;;;4.73;81.15
51876;BME280;34054;52.100;5.116;2023-01-28T02:34:05;102840.50;;;4.77;81.20
51876;BME280;34054;52.100;5.116;2023-01-28T02:34:44;102835.63;;;4.80;81.30
51876;BME280;34054;52.100;5.116;2023-01-28T02:35:21;102838.31;;;4.88;81.23
51876;BME280;34054;52.100;5.116;2023-01-28T02:36:02;102839.81;;;4.99;81.16
51876;BME280;34054;52.100;5.116;2023-01-28T02:36:44;102833.59;;;4.91;80.75
51876;BME280;34054;52.100;5.116;2023-01-28T02:37:21;102847.06;;;4.91;81.00
51876;BME280;34054;52.100;5.116;2023-01-28T02:37:58;102845.88;;;4.93;80.68
51876;BME280;34054;52.100;5.116;2023-01-28T02:38:38;102840.66;;;5.00;80.54
51876;BME280;34054;52.100;5.116;2023-01-28T02:39:15;102842.34;;;5.09;80.29
51876;BME280;34054;52.100;5.116;2023-01-28T02:39:50;102847.53;;;5.11;80.14
51876;BME280;34054;52.100;5.116;2023-01-28T02:40:27;102847.72;;;5.09;79.99
51876;BME280;34054;52.100;5.116;2023-01-28T02:41:04;102838.28;;;5.05;80.07
51876;BME280;34054;52.100;5.116;2023-01-28T02:41:40;102846.72;;;5.02;80.15
51876;BME280;34054;52.100;5.116;2023-01-28T02:42:18;102843.38;;;4.92;80.19
51876;BME280;34054;52.100;5.116;2023-01-28T02:42:53;102840.00;;;4.90;80.64
51876;BME280;34054;52.100;5.116;2023-01-28T02:43:33;102843.00;;;4.95;80.63
51876;BME280;34054;52.100;5.116;2023-01-28T02:44:07;102822.66;;;4.84;80.54
51876;BME280;34054;52.100;5.116;2023-01-28T02:44:38;102839.66;;;4.84;80.49
51876;BME280;34054;52.100;5.116;2023-01-28T02:45:12;102838.00;;;4.83;80.71
51876;BME280;34054;52.100;5.116;2023-01-28T02:45:49;102843.88;;;4.87;80.63
51876;BME280;34054;52.100;5.116;2023-01-28T02:46:39;102837.97;;;4.92;80.44
51876;BME280;34054;52.100;5.116;2023-01-28T02:47:28;102836.63;;;4.79;80.16
51876;BME280;34054;52.100;5.116;2023-01-28T02:48:29;102834.94;;;4.78;80.55
51876;BME280;34054;52.100;5.116;2023-01-28T02:49:01;102839.00;;;4.82;80.52
51876;BME280;34054;52.100;5.116;2023-01-28T02:49:36;102841.00;;;4.88;80.55
51876;BME280;34054;52.100;5.116;2023-01-28T02:50:13;102833.91;;;4.96;80.36
51876;BME280;34054;52.100;5.116;2023-01-28T02:50:48;102835.59;;;4.97;80.15
51876;BME280;34054;52.100;5.116;2023-01-28T02:51:26;102826.69;;;4.96;80.14
51876;BME280;34054;52.100;5.116;2023-01-28T02:52:08;102826.69;;;4.96;80.00
51876;BME280;34054;52.100;5.116;2023-01-28T02:53:16;102838.28;;;4.97;79.28
51876;BME280;34054;52.100;5.116;2023-01-28T02:54:11;102829.56;;;5.03;78.78
51876;BME280;34054;52.100;5.116;2023-01-28T02:54:50;102832.59;;;5.00;78.54
51876;BME280;34054;52.100;5.116;2023-01-28T02:55:29;102826.50;;;5.06;77.87
51876;BME280;34054;52.100;5.116;2023-01-28T02:56:12;102830.41;;;4.87;78.08
51876;BME280;34054;52.100;5.116;2023-01-28T02:56:51;102829.06;;;4.83;78.59
51876;BME280;34054;52.100;5.116;2023-01-28T02:57:32;102827.53;;;4.88;78.12
51876;BME280;34054;52.100;5.116;2023-01-28T02:58:09;102825.19;;;4.94;77.64
51876;BME280;34054;52.100;5.116;2023-01-28T02:58:51;102824.03;;;4.88;77.21
51876;BME280;34054;52.100;5.116;2023-01-28T02:59:53;102827.03;;;4.77;78.29
51876;BME280;34054;52.100;5.116;2023-01-28T03:00:33;102824.53;;;4.75;78.49
51876;BME280;34054;52.100;5.116;2023-01-28T03:01:17;102819.66;;;4.79;78.66
51876;BME280;34054;52.100;5.116;2023-01-28T03:01:55;102824.69;;;4.82;78.54
51876;BME280;34054;52.100;5.116;2023-01-28T03:02:34;102818.78;;;4.78;78.70
51876;BME280;34054;52.100;5.116;2023-01-28T03:03:13;102821.47;;;4.78;78.72
51876;BME280;34054;52.100;5.116;2023-01-28T03:03:55;102819.66;;;4.70;78.89
51876;BME280;34054;52.100;5.116;2023-01-28T03:04:31;102825.03;;;4.62;79.28
51876;BME280;34054;52.100;5.116;2023-01-28T03:05:08;102818.28;;;4.58;79.70
51876;BME280;34054;52.100;5.116;2023-01-28T03:05:47;102818.16;;;4.68;80.00
51876;BME280;34054;52.100;5.116;2023-01-28T03:06:36;102821.34;;;4.63;79.96